createdAt,value
2022-08-26T00:01:55.148Z,100350.38
2022-08-26T00:04:25.974Z,100349.06
2022-08-26T00:06:55.988Z,100354.88
2022-08-26T00:09:24.750Z,100353.63
2022-08-26T00:11:52.388Z,100357.47
2022-08-26T00:14:19.396Z,100360.59
2022-08-26T00:16:48.103Z,100354.88
2022-08-26T00:19:18.081Z,100366.94
2022-08-26T00:21:46.101Z,100361.69
2022-08-26T00:24:13.417Z,100354.75
2022-08-26T00:26:41.509Z,100366.53
2022-08-26T00:29:09.369Z,100356.25
2022-08-26T00:31:36.395Z,100359.03
2022-08-26T00:34:04.364Z,100359.00
2022-08-26T00:36:31.963Z,100361.88
2022-08-26T00:38:59.183Z,100366.13
2022-08-26T00:41:25.971Z,100368.91
2022-08-26T00:43:53.214Z,100365.78
2022-08-26T00:46:24.389Z,100370.00
2022-08-26T00:49:04.429Z,100361.09
2022-08-26T00:51:54.689Z,100366.47
2022-08-26T00:54:26.984Z,100362.38
2022-08-26T00:56:59.911Z,100361.22
2022-08-26T00:59:29.358Z,100355.13
2022-08-26T01:02:00.516Z,100353.63
2022-08-26T01:04:30.983Z,100357.59
2022-08-26T01:06:57.955Z,100356.34
2022-08-26T01:09:24.902Z,100363.94
2022-08-26T01:11:56.216Z,100354.06
2022-08-26T01:14:25.155Z,100356.09
2022-08-26T01:16:52.418Z,100358.06
2022-08-26T01:19:24.174Z,100360.41
2022-08-26T01:22:03.915Z,100362.88
2022-08-26T01:24:31.232Z,100368.03
2022-08-26T01:27:02.637Z,100368.16
2022-08-26T01:29:30.207Z,100377.22
2022-08-26T01:31:58.246Z,100378.66
2022-08-26T01:34:30.758Z,100372.16
2022-08-26T01:37:13.695Z,100368.78
2022-08-26T01:39:44.450Z,100364.66
2022-08-26T01:42:14.198Z,100369.81
2022-08-26T01:44:48.135Z,100375.78
2022-08-26T01:47:16.726Z,100380.41
2022-08-26T01:49:46.782Z,100380.81
2022-08-26T01:52:17.646Z,100382.47
2022-08-26T01:54:46.209Z,100388.19
2022-08-26T01:57:19.343Z,100384.91
2022-08-26T01:59:47.326Z,100395.94
2022-08-26T02:02:14.202Z,100389.63
2022-08-26T02:04:48.692Z,100387.03
2022-08-26T02:07:18.473Z,100398.38
2022-08-26T02:09:48.597Z,100400.25
2022-08-26T02:12:17.486Z,100401.91
2022-08-26T02:14:50.202Z,100394.16
2022-08-26T02:17:21.264Z,100405.97
2022-08-26T02:19:50.265Z,100412.34
2022-08-26T02:22:20.872Z,100413.47
2022-08-26T02:25:01.021Z,100408.19
2022-08-26T02:27:32.801Z,100411.72
2022-08-26T02:30:32.053Z,100424.81
2022-08-26T02:33:00.192Z,100423.34
2022-08-26T02:35:27.130Z,100427.25
2022-08-26T02:37:54.107Z,100424.00
2022-08-26T02:40:24.261Z,100422.13
2022-08-26T02:42:53.077Z,100430.03
2022-08-26T02:45:23.180Z,100423.41
2022-08-26T02:47:51.541Z,100425.75
2022-08-26T02:50:20.527Z,100425.69
2022-08-26T02:52:48.565Z,100425.81
2022-08-26T02:55:15.938Z,100431.31
2022-08-26T02:57:43.309Z,100427.22
2022-08-26T03:00:13.102Z,100428.06
2022-08-26T03:02:40.218Z,100430.16
2022-08-26T03:05:07.758Z,100434.13
2022-08-26T03:07:34.636Z,100430.84
2022-08-26T03:10:01.426Z,100426.88
2022-08-26T03:12:35.824Z,100433.78
2022-08-26T03:15:03.320Z,100431.75
2022-08-26T03:17:45.904Z,100426.28
2022-08-26T03:20:13.754Z,100427.13
2022-08-26T03:22:42.826Z,100428.72
2022-08-26T03:25:12.323Z,100426.88
2022-08-26T03:27:39.343Z,100443.97
2022-08-26T03:30:25.669Z,100440.53
2022-08-26T03:32:53.563Z,100444.88
2022-08-26T03:35:20.457Z,100436.97
2022-08-26T03:37:49.456Z,100435.91
2022-08-26T03:40:16.442Z,100440.69
2022-08-26T03:42:47.836Z,100441.03
2022-08-26T03:45:16.789Z,100435.63
2022-08-26T03:47:45.961Z,100429.28
2022-08-26T03:50:17.796Z,100429.66
2022-08-26T03:52:51.599Z,100428.09
2022-08-26T03:55:19.228Z,100428.63
2022-08-26T03:57:50.831Z,100432.88
2022-08-26T04:00:18.544Z,100441.59
2022-08-26T04:02:48.837Z,100445.72
2022-08-26T04:05:17.629Z,100443.09
2022-08-26T04:07:46.418Z,100441.75
2022-08-26T04:10:20.365Z,100446.38
2022-08-26T04:12:47.408Z,100449.88
2022-08-26T04:15:16.634Z,100444.88
2022-08-26T04:17:44.802Z,100444.88
2022-08-26T04:20:14.058Z,100451.88
2022-08-26T04:22:43.301Z,100453.25
2022-08-26T04:25:10.737Z,100463.25
2022-08-26T04:27:37.739Z,100463.25
2022-08-26T04:30:07.776Z,100453.91
2022-08-26T04:32:35.923Z,100458.41
2022-08-26T04:35:03.719Z,100466.16
2022-08-26T04:37:32.038Z,100469.69
2022-08-26T04:39:59.816Z,100469.25
2022-08-26T04:42:27.109Z,100465.47
2022-08-26T04:44:54.118Z,100466.88
2022-08-26T04:47:21.462Z,100468.63
2022-08-26T04:49:48.409Z,100472.03
2022-08-26T04:52:15.456Z,100479.56
2022-08-26T04:54:42.963Z,100482.72
2022-08-26T04:57:10.690Z,100478.41
2022-08-26T04:59:39.438Z,100479.28
2022-08-26T05:02:07.204Z,100479.63
2022-08-26T05:04:34.616Z,100482.06
2022-08-26T05:07:02.896Z,100474.75
2022-08-26T05:09:30.482Z,100479.19
2022-08-26T05:11:57.513Z,100471.81
2022-08-26T05:14:24.341Z,100477.47
2022-08-26T05:16:51.449Z,100480.06
2022-08-26T05:19:19.115Z,100484.84
2022-08-26T05:21:47.819Z,100485.00
2022-08-26T05:24:15.237Z,100480.50
2022-08-26T05:26:42.368Z,100489.91
2022-08-26T05:29:11.727Z,100490.22
2022-08-26T05:31:38.609Z,100494.13
2022-08-26T05:34:05.970Z,100505.16
2022-08-26T05:36:35.328Z,100489.88
2022-08-26T05:39:03.890Z,100502.44
2022-08-26T05:41:36.558Z,100498.59
2022-08-26T05:44:07.985Z,100499.97
2022-08-26T05:46:36.691Z,100503.41
2022-08-26T05:49:06.107Z,100509.50
2022-08-26T05:51:45.270Z,100502.88
2022-08-26T05:54:13.376Z,100509.88
2022-08-26T05:56:40.538Z,100503.47
2022-08-26T05:59:14.280Z,100508.69
2022-08-26T06:01:41.964Z,100501.81
2022-08-26T06:04:08.870Z,100514.19
2022-08-26T06:06:37.090Z,100509.38
2022-08-26T06:09:07.179Z,100509.66
2022-08-26T06:11:38.903Z,100514.22
2022-08-26T06:14:06.969Z,100508.03
2022-08-26T06:16:38.351Z,100515.53
2022-08-26T06:19:10.707Z,100515.28
2022-08-26T06:21:40.182Z,100512.00
2022-08-26T06:24:31.047Z,100515.53
2022-08-26T06:27:01.633Z,100515.66
2022-08-26T06:29:31.452Z,100505.91
2022-08-26T06:31:58.567Z,100507.34
2022-08-26T06:34:30.335Z,100507.22
2022-08-26T06:36:59.835Z,100509.00
2022-08-26T06:39:30.864Z,100505.84
2022-08-26T06:41:59.121Z,100512.75
2022-08-26T06:44:26.894Z,100518.94
2022-08-26T06:46:53.964Z,100521.22
2022-08-26T06:49:26.852Z,100520.97
2022-08-26T06:51:58.543Z,100523.53
2022-08-26T06:54:26.831Z,100528.00
2022-08-26T06:56:53.914Z,100524.03
2022-08-26T06:59:21.914Z,100521.56
2022-08-26T07:01:49.656Z,100530.72
2022-08-26T07:04:22.206Z,100523.69
2022-08-26T07:06:52.446Z,100528.84
2022-08-26T07:09:21.893Z,100519.78
2022-08-26T07:11:51.418Z,100519.56
2022-08-26T07:14:21.537Z,100530.56
2022-08-26T07:16:52.039Z,100518.72
2022-08-26T07:19:31.052Z,100525.03
2022-08-26T07:22:03.469Z,100514.84
2022-08-26T07:24:32.187Z,100512.41
2022-08-26T07:27:06.875Z,100520.94
2022-08-26T07:29:36.827Z,100517.66
2022-08-26T07:32:04.046Z,100529.28
2022-08-26T07:34:33.314Z,100519.78
2022-08-26T07:37:00.635Z,100516.50
2022-08-26T07:39:28.480Z,100517.91
2022-08-26T07:42:00.113Z,100525.50
2022-08-26T07:44:27.911Z,100522.00
2022-08-26T07:46:54.842Z,100519.06
2022-08-26T07:49:26.869Z,100517.75
2022-08-26T07:51:55.603Z,100525.28
2022-08-26T07:54:27.058Z,100520.97
2022-08-26T07:56:54.710Z,100522.16
2022-08-26T07:59:23.431Z,100523.72
2022-08-26T08:01:50.671Z,100523.94
2022-08-26T08:04:20.094Z,100535.16
2022-08-26T08:06:52.518Z,100536.25
2022-08-26T08:09:19.353Z,100525.28
2022-08-26T08:11:49.704Z,100532.06
2022-08-26T08:14:18.489Z,100527.66
2022-08-26T08:16:51.254Z,100526.22
2022-08-26T08:19:23.790Z,100528.06
2022-08-26T08:21:50.808Z,100522.34
2022-08-26T08:24:18.245Z,100528.72
2022-08-26T08:26:46.078Z,100531.91
2022-08-26T08:29:13.250Z,100534.47
2022-08-26T08:31:58.023Z,100531.28
2022-08-26T08:34:27.216Z,100533.19
2022-08-26T08:36:54.596Z,100536.28
2022-08-26T08:39:22.392Z,100541.38
2022-08-26T08:42:23.659Z,100528.75
2022-08-26T08:44:52.118Z,100532.72
2022-08-26T08:47:34.558Z,100546.03
2022-08-26T08:50:44.360Z,100542.34
2022-08-26T08:53:23.227Z,100542.50
2022-08-26T08:56:02.658Z,100537.72
2022-08-26T08:58:57.344Z,100537.53
2022-08-26T09:01:48.076Z,100538.75
2022-08-26T09:04:46.770Z,100534.41
2022-08-26T09:16:46.981Z,100532.53
2022-08-26T09:19:40.466Z,100530.28
2022-08-26T09:22:09.646Z,100535.13
2022-08-26T09:24:41.639Z,100530.53
2022-08-26T09:27:11.498Z,100534.47
2022-08-26T09:29:43.178Z,100528.75
2022-08-26T09:32:21.290Z,100532.41
2022-08-26T09:34:57.883Z,100525.44
2022-08-26T09:40:22.759Z,100524.25
2022-08-26T09:43:22.315Z,100521.75
2022-08-26T09:45:59.540Z,100522.53
2022-08-26T09:48:36.031Z,100512.81
2022-08-26T09:51:27.051Z,100511.44
2022-08-26T09:53:59.926Z,100508.78
2022-08-26T09:56:30.000Z,100507.91
2022-08-26T09:58:57.472Z,100516.53
2022-08-26T10:01:24.354Z,100507.72
2022-08-26T10:03:51.554Z,100515.50
2022-08-26T10:06:21.032Z,100512.69
2022-08-26T10:11:53.753Z,100509.13
2022-08-26T10:14:25.499Z,100519.41
2022-08-26T10:17:22.146Z,100510.78
2022-08-26T10:19:57.217Z,100512.75
2022-08-26T10:22:26.438Z,100513.63
2022-08-26T10:24:57.728Z,100510.16
2022-08-26T10:27:27.255Z,100506.13
2022-08-26T10:30:00.382Z,100511.78
2022-08-26T10:32:41.333Z,100513.88
2022-08-26T10:35:12.444Z,100510.50
2022-08-26T10:37:47.339Z,100506.44
2022-08-26T10:40:25.010Z,100509.22
2022-08-26T10:42:58.668Z,100518.25
2022-08-26T10:45:30.425Z,100510.69
2022-08-26T10:48:00.304Z,100513.97
2022-08-26T10:50:33.802Z,100511.34
2022-08-26T10:53:17.276Z,100508.34
2022-08-26T10:55:49.974Z,100506.72
2022-08-26T10:58:49.747Z,100503.16
2022-08-26T11:01:43.418Z,100504.28
2022-08-26T11:04:19.470Z,100507.25
2022-08-26T11:06:49.659Z,100505.38
2022-08-26T11:09:46.536Z,100505.66
2022-08-26T11:12:35.388Z,100505.63
2022-08-26T11:15:07.266Z,100503.75
2022-08-26T11:18:11.455Z,100501.84
2022-08-26T11:20:45.960Z,100498.28
2022-08-26T11:23:16.819Z,100496.38
2022-08-26T11:26:02.055Z,100498.28
2022-08-26T11:28:37.418Z,100495.53
2022-08-26T11:31:08.757Z,100497.97
2022-08-26T11:33:59.931Z,100483.78
2022-08-26T11:36:41.009Z,100487.47
2022-08-26T11:39:16.823Z,100495.47
2022-08-26T11:41:45.214Z,100492.94
2022-08-26T11:44:17.768Z,100493.59
2022-08-26T11:46:59.640Z,100500.19
2022-08-26T11:49:32.271Z,100503.81
2022-08-26T11:52:20.936Z,100493.53
2022-08-26T11:55:03.030Z,100494.06
2022-08-26T11:57:33.095Z,100501.25
2022-08-26T12:00:01.442Z,100505.66
2022-08-26T12:02:28.479Z,100506.69
2022-08-26T12:04:56.557Z,100504.25
2022-08-26T12:07:27.710Z,100501.75
2022-08-26T12:09:58.703Z,100506.22
2022-08-26T12:12:34.516Z,100511.81
2022-08-26T12:15:22.832Z,100510.34
2022-08-26T12:17:54.520Z,100512.16
2022-08-26T12:20:48.666Z,100513.78
2022-08-26T12:23:36.431Z,100518.28
2022-08-26T12:26:15.491Z,100518.75
2022-08-26T12:28:49.033Z,100521.50
2022-08-26T12:31:22.680Z,100523.22
2022-08-26T12:33:50.177Z,100520.69
2022-08-26T12:36:23.502Z,100523.00
2022-08-26T12:38:50.596Z,100529.88
2022-08-26T12:41:39.391Z,100527.31
2022-08-26T12:44:06.320Z,100531.94
2022-08-26T12:46:33.303Z,100533.84
2022-08-26T12:49:03.505Z,100523.47
2022-08-26T12:51:32.600Z,100523.22
2022-08-26T12:53:59.558Z,100525.00
2022-08-26T12:56:39.100Z,100526.28
2022-08-26T12:59:19.807Z,100526.63
2022-08-26T13:01:47.083Z,100531.31
2022-08-26T13:04:44.211Z,100524.03
2022-08-26T13:07:23.722Z,100522.53
2022-08-26T13:09:57.499Z,100522.94
2022-08-26T13:12:32.936Z,100520.59
2022-08-26T13:15:01.216Z,100526.31
2022-08-26T13:17:29.415Z,100530.66
2022-08-26T13:20:00.113Z,100531.75
2022-08-26T13:22:29.856Z,100535.06
2022-08-26T13:24:57.325Z,100534.25
2022-08-26T13:27:26.525Z,100527.97
2022-08-26T13:29:54.226Z,100523.94
2022-08-26T13:32:26.116Z,100522.03
2022-08-26T13:34:55.728Z,100524.38
2022-08-26T13:37:24.519Z,100518.19
2022-08-26T13:40:07.233Z,100528.94
2022-08-26T13:42:34.494Z,100525.19
2022-08-26T13:45:01.770Z,100518.06
2022-08-26T13:47:28.868Z,100512.00
2022-08-26T13:49:56.441Z,100505.16
2022-08-26T13:52:29.162Z,100515.69
2022-08-26T13:54:57.378Z,100502.66
2022-08-26T13:57:24.807Z,100506.69
2022-08-26T13:59:53.961Z,100502.53
2022-08-26T14:02:20.853Z,100509.91
2022-08-26T14:04:47.768Z,100504.97
2022-08-26T14:07:14.929Z,100501.91
2022-08-26T14:09:41.772Z,100495.38
2022-08-26T14:12:08.768Z,100497.28
2022-08-26T14:14:35.552Z,100502.56
2022-08-26T14:17:02.576Z,100500.13
2022-08-26T14:19:30.467Z,100507.75
2022-08-26T14:21:57.503Z,100500.13
2022-08-26T14:24:24.416Z,100502.59
2022-08-26T14:26:51.146Z,100493.31
2022-08-26T14:29:17.981Z,100502.78
2022-08-26T14:31:45.465Z,100496.06
2022-08-26T14:34:13.279Z,100502.50
2022-08-26T14:36:40.064Z,100502.88
2022-08-26T14:39:12.713Z,100497.69
2022-08-26T14:41:53.938Z,100494.03
2022-08-26T14:44:22.592Z,100500.22
2022-08-26T14:46:51.191Z,100486.44
2022-08-26T14:49:19.411Z,100488.09
2022-08-26T14:51:46.411Z,100491.13
2022-08-26T14:54:17.336Z,100479.88
2022-08-26T14:57:13.596Z,100485.78
2022-08-26T14:59:43.444Z,100489.84
2022-08-26T15:02:27.785Z,100481.06
2022-08-26T15:05:02.199Z,100479.50
2022-08-26T15:07:29.023Z,100479.94
2022-08-26T15:09:56.028Z,100474.88
2022-08-26T15:12:23.115Z,100464.50
2022-08-26T15:14:49.917Z,100466.78
2022-08-26T15:17:27.428Z,100461.91
2022-08-26T15:19:54.345Z,100466.56
2022-08-26T15:22:21.281Z,100451.78
2022-08-26T15:24:48.221Z,100460.84
2022-08-26T15:27:21.108Z,100475.84
2022-08-26T15:29:47.903Z,100463.75
2022-08-26T15:32:14.753Z,100458.81
2022-08-26T15:34:41.539Z,100461.63
2022-08-26T15:37:09.689Z,100459.19
2022-08-26T15:39:36.494Z,100461.34
2022-08-26T15:42:04.024Z,100458.69
2022-08-26T15:44:30.819Z,100456.25
2022-08-26T15:46:58.870Z,100457.25
2022-08-26T15:49:26.527Z,100456.53
2022-08-26T15:51:53.540Z,100459.34
2022-08-26T15:54:22.301Z,100464.78
2022-08-26T15:56:51.710Z,100480.63
2022-08-26T15:59:19.867Z,100477.25
2022-08-26T16:01:48.425Z,100471.03
2022-08-26T16:04:15.378Z,100470.09
2022-08-26T16:06:43.525Z,100468.38
2022-08-26T16:09:11.107Z,100473.31
2022-08-26T16:11:38.064Z,100460.88
2022-08-26T16:14:05.823Z,100467.75
2022-08-26T16:16:32.882Z,100469.69
2022-08-26T16:19:01.280Z,100474.88
2022-08-26T16:21:31.893Z,100463.44
2022-08-26T16:23:58.846Z,100481.97
2022-08-26T16:26:33.155Z,100473.25
2022-08-26T16:29:08.602Z,100476.53
2022-08-26T16:31:36.319Z,100483.03
2022-08-26T16:34:03.191Z,100484.97
2022-08-26T16:36:30.058Z,100485.78
2022-08-26T16:38:56.903Z,100487.69
2022-08-26T16:41:26.325Z,100482.78
2022-08-26T16:43:53.948Z,100472.13
2022-08-26T16:46:23.664Z,100475.34
2022-08-26T16:48:50.662Z,100473.16
2022-08-26T16:51:19.621Z,100473.25
2022-08-26T16:53:46.453Z,100469.69
2022-08-26T16:56:14.854Z,100462.00
2022-08-26T16:58:41.766Z,100467.97
2022-08-26T17:01:09.636Z,100472.50
2022-08-26T17:03:36.638Z,100467.88
2022-08-26T17:06:03.523Z,100465.31
2022-08-26T17:08:30.470Z,100469.06
2022-08-26T17:11:00.401Z,100474.94
2022-08-26T17:13:35.529Z,100473.28
2022-08-26T17:16:05.041Z,100472.69
2022-08-26T17:18:33.480Z,100473.56
2022-08-26T17:21:06.227Z,100469.56
2022-08-26T17:23:33.263Z,100471.38
2022-08-26T17:26:00.147Z,100471.69
2022-08-26T17:28:27.046Z,100474.19
2022-08-26T17:30:56.290Z,100478.09
2022-08-26T17:33:24.716Z,100470.38
2022-08-26T17:35:53.034Z,100471.47
2022-08-26T17:38:21.421Z,100476.97
2022-08-26T17:40:48.276Z,100484.91
2022-08-26T17:43:15.185Z,100488.50
2022-08-26T17:45:42.009Z,100496.84
2022-08-26T17:48:10.662Z,100488.16
2022-08-26T17:50:39.687Z,100490.09
2022-08-26T17:53:06.495Z,100482.69
2022-08-26T17:55:33.388Z,100483.53
2022-08-26T17:58:00.304Z,100477.72
2022-08-26T18:00:30.814Z,100487.78
2022-08-26T18:02:58.231Z,100497.69
2022-08-26T18:05:25.293Z,100485.91
2022-08-26T18:07:52.431Z,100493.22
2022-08-26T18:10:20.395Z,100492.31
2022-08-26T18:12:47.705Z,100492.66
2022-08-26T18:15:16.257Z,100491.16
2022-08-26T18:17:43.330Z,100491.97
2022-08-26T18:20:13.158Z,100499.13
2022-08-26T18:22:40.302Z,100502.56
2022-08-26T18:25:08.470Z,100501.09
2022-08-26T18:27:36.175Z,100498.63
2022-08-26T18:30:05.852Z,100499.63
2022-08-26T18:32:32.755Z,100499.41
2022-08-26T18:34:59.809Z,100497.59
2022-08-26T18:37:29.469Z,100498.19
2022-08-26T18:39:59.583Z,100505.75
2022-08-26T18:42:27.263Z,100501.06
2022-08-26T18:44:54.294Z,100505.47
2022-08-26T18:47:21.247Z,100505.66
2022-08-26T18:49:48.686Z,100511.34
2022-08-26T18:52:15.646Z,100506.94
2022-08-26T18:54:43.258Z,100512.59
2022-08-26T18:57:10.271Z,100516.13
2022-08-26T18:59:37.041Z,100513.16
2022-08-26T19:02:04.100Z,100516.91
2022-08-26T19:04:31.101Z,100507.72
2022-08-26T19:06:57.970Z,100514.19
2022-08-26T19:09:26.435Z,100514.84
2022-08-26T19:14:21.247Z,100515.97
2022-08-26T19:16:49.903Z,100517.16
2022-08-26T19:19:17.236Z,100520.50
2022-08-26T19:21:44.261Z,100523.50
2022-08-26T19:24:15.702Z,100531.34
2022-08-26T19:26:44.116Z,100531.19
2022-08-26T19:29:11.281Z,100526.28
2022-08-26T19:31:38.104Z,100529.50
2022-08-26T19:34:05.458Z,100532.31
2022-08-26T19:36:32.824Z,100541.81
2022-08-26T19:39:00.357Z,100535.22
2022-08-26T19:41:37.297Z,100541.59
2022-08-26T19:44:12.891Z,100556.47
2022-08-26T19:46:40.301Z,100554.16
2022-08-26T19:49:07.451Z,100547.69
2022-08-26T19:51:36.470Z,100551.88
2022-08-26T19:54:03.683Z,100552.94
2022-08-26T19:56:30.599Z,100554.22
2022-08-26T19:58:57.602Z,100553.34
2022-08-26T20:01:24.758Z,100547.78
2022-08-26T20:03:51.774Z,100543.13
2022-08-26T20:06:18.782Z,100555.53
2022-08-26T20:08:46.265Z,100550.84
2022-08-26T20:11:15.932Z,100556.63
2022-08-26T20:13:43.931Z,100563.91
2022-08-26T20:16:12.048Z,100559.06
2022-08-26T20:19:01.633Z,100555.03
2022-08-26T20:21:30.548Z,100562.13
2022-08-26T20:23:59.369Z,100571.19
2022-08-26T20:26:28.886Z,100564.88
2022-08-26T20:28:56.659Z,100568.50
2022-08-26T20:31:24.291Z,100569.97
2022-08-26T20:33:51.769Z,100572.84
2022-08-26T20:36:20.661Z,100571.06
2022-08-26T20:38:48.344Z,100573.97
2022-08-26T20:41:15.480Z,100573.41
2022-08-26T20:43:42.898Z,100567.09
2022-08-26T20:46:18.076Z,100575.78
2022-08-26T20:48:47.539Z,100569.84
2022-08-26T20:51:15.454Z,100568.63
2022-08-26T20:53:42.621Z,100578.13
2022-08-26T20:56:10.631Z,100583.38
2022-08-26T20:58:38.708Z,100576.19
2022-08-26T21:01:08.191Z,100576.84
2022-08-26T21:03:36.425Z,100576.81
2022-08-26T21:06:03.989Z,100589.13
2022-08-26T21:08:33.193Z,100586.03
2022-08-26T21:11:01.081Z,100585.69
2022-08-26T21:13:42.907Z,100591.66
2022-08-26T21:16:15.695Z,100588.22
2022-08-26T21:18:42.851Z,100587.91
2022-08-26T21:21:10.567Z,100595.22
2022-08-26T21:23:37.951Z,100586.66
2022-08-26T21:26:07.168Z,100593.47
2022-08-26T21:28:38.513Z,100591.50
2022-08-26T21:31:11.800Z,100586.56
2022-08-26T21:33:39.514Z,100594.84
2022-08-26T21:36:07.385Z,100602.66
2022-08-26T21:38:36.224Z,100601.25
2022-08-26T21:41:07.167Z,100593.28
2022-08-26T21:43:35.596Z,100590.41
2022-08-26T21:46:11.474Z,100587.13
2022-08-26T21:48:39.589Z,100585.94
2022-08-26T21:51:06.863Z,100586.06
2022-08-26T21:53:34.215Z,100593.31
2022-08-26T21:56:05.141Z,100592.59
2022-08-26T21:58:31.898Z,100595.97
2022-08-26T22:00:58.800Z,100586.31
2022-08-26T22:03:25.649Z,100605.19
2022-08-26T22:05:52.907Z,100602.91
2022-08-26T22:08:22.815Z,100602.66
2022-08-26T22:10:55.144Z,100603.91
2022-08-26T22:13:25.068Z,100604.16
2022-08-26T22:15:52.325Z,100599.78
2022-08-26T22:18:21.224Z,100604.72
2022-08-26T22:20:48.119Z,100608.72
2022-08-26T22:23:15.017Z,100608.97
2022-08-26T22:25:41.849Z,100608.50
2022-08-26T22:28:08.779Z,100622.38
2022-08-26T22:30:36.021Z,100608.06
2022-08-26T22:33:04.178Z,100608.63
2022-08-26T22:35:31.362Z,100610.03
2022-08-26T22:37:59.121Z,100615.00
2022-08-26T22:40:26.145Z,100607.84
2022-08-26T22:42:55.591Z,100602.50
2022-08-26T22:45:25.443Z,100611.53
2022-08-26T22:47:52.277Z,100608.50
2022-08-26T22:50:19.250Z,100609.16
2022-08-26T22:52:46.107Z,100607.47
2022-08-26T22:55:13.012Z,100606.28
2022-08-26T22:57:39.940Z,100601.59
2022-08-26T23:00:07.523Z,100604.47
2022-08-26T23:02:38.478Z,100607.09
2022-08-26T23:05:06.823Z,100613.41
2022-08-26T23:07:34.349Z,100601.94
2022-08-26T23:10:01.492Z,100613.28
2022-08-26T23:12:28.290Z,100617.69
2022-08-26T23:14:55.312Z,100607.94
2022-08-26T23:17:22.187Z,100607.34
2022-08-26T23:19:49.114Z,100604.38
2022-08-26T23:22:17.507Z,100610.88
2022-08-26T23:24:44.485Z,100616.28
2022-08-26T23:27:11.833Z,100617.13
2022-08-26T23:29:39.713Z,100615.47
2022-08-26T23:32:06.660Z,100628.19
2022-08-26T23:34:52.116Z,100623.53
2022-08-26T23:37:19.732Z,100618.19
2022-08-26T23:39:47.705Z,100623.09
2022-08-26T23:42:14.887Z,100618.50
2022-08-26T23:44:41.763Z,100614.25
2022-08-26T23:47:08.796Z,100612.13
2022-08-26T23:49:36.163Z,100619.19
2022-08-26T23:52:23.540Z,100613.44
2022-08-26T23:54:51.066Z,100619.25
2022-08-26T23:57:19.231Z,100611.06
2022-08-26T23:59:46.458Z,100614.97
